createdAt,value
2022-11-01T10:11:08.632Z,19.80
2022-11-01T10:13:46.774Z,19.81
2022-11-01T10:16:51.757Z,19.82
2022-11-01T10:19:22.148Z,19.84
2022-11-01T10:21:56.567Z,19.86
2022-11-01T10:25:05.199Z,19.86
2022-11-01T10:27:44.842Z,19.88
2022-11-01T10:30:18.468Z,19.87
2022-11-01T10:33:03.975Z,19.89
2022-11-01T10:35:35.683Z,19.89
2022-11-01T10:38:38.156Z,19.90
2022-11-01T10:41:10.276Z,19.89
2022-11-01T10:43:45.784Z,19.89
2022-11-01T10:46:18.618Z,19.86
2022-11-01T10:48:54.867Z,19.85
2022-11-01T10:51:27.784Z,19.81
2022-11-01T10:54:00.926Z,19.85
2022-11-01T10:56:41.935Z,19.88
2022-11-01T10:59:33.687Z,19.90
2022-11-01T11:02:05.789Z,19.92
2022-11-01T11:04:34.619Z,19.93
2022-11-01T11:07:03.373Z,19.91
2022-11-01T11:09:38.798Z,19.91
2022-11-01T11:12:17.000Z,19.95
2022-11-01T11:14:49.522Z,19.96
2022-11-01T11:17:29.204Z,19.92
2022-11-01T11:20:05.254Z,19.92
2022-11-01T11:22:41.858Z,19.92
2022-11-01T11:25:19.893Z,19.93
2022-11-01T11:27:50.613Z,19.97
2022-11-01T11:30:33.611Z,19.97
2022-11-01T11:33:02.723Z,19.96
2022-11-01T11:35:32.993Z,19.95
2022-11-01T11:38:05.443Z,19.85
2022-11-01T11:40:43.569Z,19.60
2022-11-01T11:43:37.532Z,19.46
2022-11-01T11:46:14.093Z,19.50
2022-11-01T11:49:07.349Z,19.23
2022-11-01T11:51:38.302Z,19.17
2022-11-01T11:54:29.329Z,19.14
2022-11-01T11:57:18.442Z,19.24
2022-11-01T11:59:59.485Z,19.39
2022-11-01T12:02:34.964Z,19.52
2022-11-01T12:05:16.713Z,19.63
2022-11-01T12:07:50.664Z,19.73
2022-11-01T12:10:38.072Z,19.71
2022-11-01T12:13:39.204Z,19.71
2022-11-01T12:16:15.068Z,19.79
2022-11-01T12:19:00.059Z,19.78
2022-11-01T12:21:36.839Z,19.79
2022-11-01T12:24:24.217Z,19.80
2022-11-01T12:26:56.203Z,19.82
2022-11-01T12:29:36.013Z,19.84
2022-11-01T12:32:21.134Z,19.87
2022-11-01T12:34:50.266Z,19.85
2022-11-01T12:37:27.145Z,19.85
2022-11-01T12:40:26.803Z,19.85
2022-11-01T12:43:31.105Z,19.90
2022-11-01T12:46:40.078Z,19.95
2022-11-01T12:49:29.714Z,19.96
2022-11-01T12:52:04.354Z,19.97
2022-11-01T12:54:47.694Z,20.00
2022-11-01T12:57:18.386Z,20.02
2022-11-01T12:59:48.495Z,20.01
2022-11-01T13:02:32.533Z,19.90
2022-11-01T13:05:23.891Z,19.90
2022-11-01T13:08:15.144Z,19.85
2022-11-01T13:10:46.757Z,19.84
2022-11-01T13:13:50.915Z,19.87
2022-11-01T13:16:32.535Z,19.85
2022-11-01T13:19:03.895Z,19.85
2022-11-01T13:21:59.886Z,19.82
2022-11-01T13:24:34.094Z,19.83
2022-11-01T13:27:31.903Z,19.67
2022-11-01T13:30:11.139Z,19.62
2022-11-01T13:32:56.205Z,19.67
2022-11-01T13:35:48.741Z,19.72
2022-11-01T13:38:53.250Z,19.77
2022-11-01T13:41:30.377Z,19.79
2022-11-01T13:44:04.203Z,19.82
2022-11-01T13:46:40.138Z,19.81
2022-11-01T13:49:20.022Z,19.79
2022-11-01T13:52:00.673Z,19.81
2022-11-01T13:54:44.798Z,19.81
2022-11-01T13:57:18.102Z,19.80
2022-11-01T13:59:57.736Z,19.80
2022-11-01T14:02:26.537Z,19.81
2022-11-01T14:04:56.876Z,19.79
2022-11-01T14:07:26.965Z,19.81
2022-11-01T14:09:56.815Z,19.79
2022-11-01T14:12:46.659Z,19.80
2022-11-01T14:15:25.999Z,19.76
2022-11-01T14:18:10.763Z,19.78
2022-11-01T14:20:41.301Z,19.78
2022-11-01T14:23:28.204Z,19.78
2022-11-01T14:26:18.924Z,19.77
2022-11-01T14:28:49.472Z,19.77
2022-11-01T14:31:20.212Z,19.78
2022-11-01T14:33:50.432Z,19.76
2022-11-01T14:36:22.131Z,19.77
2022-11-01T14:39:07.452Z,19.78
2022-11-01T14:41:38.570Z,19.77
2022-11-01T14:44:12.503Z,19.78
2022-11-01T14:46:46.726Z,19.76
2022-11-01T14:49:22.216Z,19.78
2022-11-01T14:52:06.070Z,19.79
2022-11-01T14:54:36.467Z,19.81
2022-11-01T14:57:26.126Z,19.80
2022-11-01T14:59:55.617Z,19.80
2022-11-01T15:02:26.347Z,19.84
2022-11-01T15:04:59.617Z,19.85
2022-11-01T15:07:31.199Z,19.82
2022-11-01T15:10:04.256Z,19.84
2022-11-01T15:12:36.204Z,19.87
2022-11-01T15:15:05.425Z,19.93
2022-11-01T15:17:35.055Z,19.93
2022-11-01T15:20:09.156Z,19.95
2022-11-01T15:22:38.409Z,19.97
2022-11-01T15:25:07.515Z,19.97
2022-11-01T15:27:42.423Z,19.98
2022-11-01T15:30:26.611Z,19.92
2022-11-01T15:33:25.151Z,19.88
2022-11-01T15:35:59.701Z,19.90
2022-11-01T15:38:29.448Z,19.88
2022-11-01T15:40:58.267Z,19.87
2022-11-01T15:43:28.140Z,19.87
2022-11-01T15:46:00.978Z,19.86
2022-11-01T15:48:38.392Z,19.87
2022-11-01T15:51:09.856Z,19.85
2022-11-01T15:53:38.967Z,19.89
2022-11-01T15:56:32.981Z,19.84
2022-11-01T15:59:02.249Z,19.79
2022-11-01T16:01:31.520Z,19.77
2022-11-01T16:04:02.079Z,19.79
2022-11-01T16:06:42.967Z,19.80
2022-11-01T16:09:27.157Z,19.82
2022-11-01T16:12:00.570Z,19.83
2022-11-01T16:14:37.889Z,19.82
2022-11-01T16:17:20.707Z,19.83
2022-11-01T16:19:51.777Z,19.84
2022-11-01T16:22:37.142Z,19.82
2022-11-01T16:25:15.616Z,19.84
2022-11-01T16:28:26.831Z,19.83
2022-11-01T16:30:56.748Z,19.81
2022-11-01T16:33:35.759Z,19.79
2022-11-01T16:36:20.892Z,19.79
2022-11-01T16:38:52.197Z,19.79
2022-11-01T16:41:39.672Z,19.76
2022-11-01T16:44:15.096Z,19.73
2022-11-01T16:46:45.149Z,19.76
2022-11-01T16:49:18.746Z,19.77
2022-11-01T16:51:47.855Z,19.77
2022-11-01T16:54:16.776Z,19.77
2022-11-01T16:56:50.896Z,19.76
2022-11-01T17:03:39.581Z,19.77
2022-11-01T17:06:08.983Z,19.79
2022-11-01T17:08:38.411Z,19.79
2022-11-01T17:11:09.456Z,19.78
2022-11-01T17:13:38.577Z,19.77
2022-11-01T17:16:12.846Z,19.77
2022-11-01T17:18:42.253Z,19.76
2022-11-01T17:21:12.335Z,19.75
2022-11-01T17:23:41.787Z,19.75
2022-11-01T17:26:11.274Z,19.73
2022-11-01T17:28:40.987Z,19.74
2022-11-01T17:31:09.998Z,19.75
2022-11-01T17:33:38.938Z,19.74
2022-11-01T17:36:11.545Z,19.75
2022-11-01T17:38:40.902Z,19.76
2022-11-01T17:41:11.149Z,19.73
2022-11-01T17:43:40.179Z,19.73
2022-11-01T17:46:18.258Z,19.73
2022-11-01T17:48:47.386Z,19.72
2022-11-01T17:51:17.988Z,19.73
2022-11-01T17:53:47.217Z,19.74
2022-11-01T17:56:16.339Z,19.72
2022-11-01T17:58:51.138Z,19.73
2022-11-01T18:01:22.693Z,19.70
2022-11-01T18:03:51.895Z,19.72
2022-11-01T18:06:21.464Z,19.71
2022-11-01T18:08:51.565Z,19.72
2022-11-01T18:11:42.860Z,19.74
2022-11-01T18:14:14.675Z,19.73
2022-11-01T18:16:52.703Z,19.75
2022-11-01T18:19:35.836Z,19.74
2022-11-01T18:22:07.711Z,19.71
2022-11-01T18:24:44.176Z,19.71
2022-11-01T18:27:13.896Z,19.71
2022-11-01T18:29:43.965Z,19.72
2022-11-01T18:32:18.195Z,19.69
2022-11-01T18:34:54.864Z,19.70
2022-11-01T18:37:38.044Z,19.68
2022-11-01T18:40:26.790Z,19.71
2022-11-01T18:42:56.012Z,19.71
2022-11-01T18:45:31.826Z,19.70
2022-11-01T18:48:24.817Z,19.68
2022-11-01T18:51:05.331Z,19.69
2022-11-01T18:53:35.373Z,19.70
2022-11-01T18:56:34.212Z,19.71
2022-11-01T18:59:04.355Z,19.68
2022-11-01T19:01:33.520Z,19.67
2022-11-01T19:04:22.410Z,19.60
2022-11-01T19:06:51.219Z,19.53
2022-11-01T19:09:29.221Z,19.43
2022-11-01T19:12:13.790Z,19.37
2022-11-01T19:14:43.881Z,19.30
2022-11-01T19:17:35.901Z,19.33
2022-11-01T19:20:16.022Z,19.36
2022-11-01T19:22:45.051Z,19.39
2022-11-01T19:25:33.140Z,19.34
2022-11-01T19:28:05.405Z,19.38
2022-11-01T19:30:35.525Z,19.34
2022-11-01T19:33:19.372Z,19.37
2022-11-01T19:35:50.102Z,19.37
2022-11-01T19:38:18.994Z,19.40
2022-11-01T19:40:53.454Z,19.42
2022-11-01T19:43:25.785Z,19.43
2022-11-01T19:45:56.490Z,19.42
2022-11-01T19:48:30.698Z,19.43
2022-11-01T19:51:01.632Z,19.48
2022-11-01T19:53:34.208Z,19.47
2022-11-01T19:56:05.800Z,19.39
2022-11-01T19:58:50.837Z,19.30
2022-11-01T20:01:43.211Z,19.24
2022-11-01T20:04:16.311Z,19.25
2022-11-01T20:06:49.893Z,19.25
2022-11-01T20:09:22.923Z,19.28
2022-11-01T20:11:52.656Z,19.29
2022-11-01T20:14:22.671Z,19.28
2022-11-01T20:16:54.342Z,19.33
2022-11-01T20:19:48.965Z,19.36
